Terminal Aerodrome Forecast
Issued by NWS

Home | Current Version | Previous Version | Text Only | Print | Product List | Glossary On
Versions: 1 2 3 4 5 6 7 8 9 10 11 12 13 14 15 16 17 18 19
000
FTAK31 PAJN 281306 AAA
TAFASI
TAF AMD
PASI 281306Z 2813/0112 11011KT 1SM -SN OVC010
     FM282000 16015KT 3SM -SN SCT010 OVC025
     FM010300 18012KT 4SM -SN BKN015 OVC025=

USA.gov is the U.S. government's official web portal to all federal, state and local government web resources and services.